createdAt,value
2018-11-11T00:00:18.445Z,86.46
2018-11-11T00:02:46.235Z,86.53
2018-11-11T00:05:13.791Z,86.74
2018-11-11T00:07:41.894Z,86.70
2018-11-11T00:10:09.403Z,86.89
2018-11-11T00:12:37.351Z,86.94
2018-11-11T00:15:06.433Z,86.85
2018-11-11T00:17:33.952Z,86.87
2018-11-11T00:20:01.490Z,87.00
2018-11-11T00:22:29.085Z,87.01
2018-11-11T00:24:56.565Z,87.40
2018-11-11T00:27:24.306Z,87.76
2018-11-11T00:29:51.761Z,87.60
2018-11-11T00:32:19.321Z,87.88
2018-11-11T00:34:46.837Z,87.68
2018-11-11T00:37:14.683Z,87.38
2018-11-11T00:39:42.242Z,87.15
2018-11-11T00:42:09.720Z,86.85
2018-11-11T00:44:37.181Z,87.12
2018-11-11T00:47:05.030Z,87.37
2018-11-11T00:49:32.738Z,87.59
2018-11-11T00:52:00.298Z,87.59
2018-11-11T00:54:27.708Z,87.76
2018-11-11T00:56:55.237Z,87.29
2018-11-11T00:59:22.645Z,87.24
2018-11-11T01:01:50.349Z,86.86
2018-11-11T01:04:17.933Z,86.89
2018-11-11T01:06:45.688Z,86.70
2018-11-11T01:09:13.288Z,87.08
2018-11-11T01:11:40.958Z,87.69
2018-11-11T01:14:08.435Z,87.54
2018-11-11T01:16:36.005Z,87.42
2018-11-11T01:19:03.726Z,87.44
2018-11-11T01:21:31.214Z,87.61
2018-11-11T01:23:58.679Z,87.59
2018-11-11T01:26:26.376Z,87.60
2018-11-11T01:28:53.952Z,87.64
2018-11-11T01:31:21.494Z,87.78
2018-11-11T01:33:49.203Z,87.47
2018-11-11T01:36:17.348Z,87.69
2018-11-11T01:38:45.433Z,87.30
2018-11-11T01:41:12.946Z,87.48
2018-11-11T01:43:40.510Z,87.82
2018-11-11T01:46:08.069Z,87.41
2018-11-11T01:48:35.864Z,87.39
2018-11-11T01:51:03.364Z,86.78
2018-11-11T01:56:08.110Z,86.42
2018-11-11T01:58:37.265Z,86.42
2018-11-11T02:01:04.942Z,86.08
2018-11-11T02:03:32.484Z,85.75
2018-11-11T02:06:00.042Z,85.53
2018-11-11T02:08:28.545Z,85.63
2018-11-11T02:10:57.334Z,86.05
2018-11-11T02:13:25.158Z,86.50
2018-11-11T02:15:52.594Z,86.62
2018-11-11T02:18:20.155Z,87.49
2018-11-11T02:20:47.640Z,87.19
2018-11-11T02:23:15.162Z,87.67
2018-11-11T02:25:42.650Z,88.55
2018-11-11T02:28:10.226Z,88.86
2018-11-11T02:30:37.723Z,89.37
2018-11-11T02:33:05.573Z,89.65
2018-11-11T02:35:33.030Z,89.46
2018-11-11T02:38:00.545Z,89.94
2018-11-11T02:40:28.151Z,90.16
2018-11-11T02:42:55.534Z,90.37
2018-11-11T02:45:23.176Z,90.80
2018-11-11T02:47:50.826Z,90.87
2018-11-11T02:50:19.064Z,91.21
2018-11-11T02:52:47.397Z,91.29
2018-11-11T02:55:15.451Z,91.55
2018-11-11T02:57:43.614Z,91.35
2018-11-11T03:00:13.327Z,91.41
2018-11-11T03:02:41.637Z,91.61
2018-11-11T03:05:10.421Z,91.85
2018-11-11T03:07:38.249Z,91.61
2018-11-11T03:10:06.233Z,91.87
2018-11-11T03:12:33.848Z,92.32
2018-11-11T03:15:01.273Z,92.09
2018-11-11T03:17:29.046Z,92.34
2018-11-11T03:19:56.788Z,92.16
2018-11-11T03:22:24.379Z,92.53
2018-11-11T03:24:52.013Z,92.47
2018-11-11T03:27:19.629Z,92.26
2018-11-11T03:29:47.215Z,92.08
2018-11-11T03:32:14.716Z,92.27
2018-11-11T03:34:42.758Z,92.39
2018-11-11T03:37:10.310Z,92.69
2018-11-11T03:39:37.804Z,92.40
2018-11-11T03:42:05.614Z,92.96
2018-11-11T03:44:33.079Z,92.76
2018-11-11T03:47:00.566Z,92.63
2018-11-11T03:49:28.251Z,92.95
2018-11-11T03:51:55.825Z,93.10
2018-11-11T03:54:23.305Z,93.07
2018-11-11T03:56:50.926Z,93.13
2018-11-11T03:59:18.341Z,93.13
2018-11-11T04:01:45.988Z,93.28
2018-11-11T04:04:13.409Z,92.94
2018-11-11T04:06:41.510Z,93.48
2018-11-11T04:09:10.875Z,93.20
2018-11-11T04:11:38.871Z,93.15
2018-11-11T04:14:06.530Z,93.25
2018-11-11T04:16:34.171Z,93.32
2018-11-11T04:19:01.628Z,93.75
2018-11-11T04:21:29.074Z,93.59
2018-11-11T04:23:56.526Z,93.48
2018-11-11T04:26:24.003Z,93.44
2018-11-11T04:28:51.597Z,93.65
2018-11-11T04:31:19.206Z,93.63
2018-11-11T04:33:46.658Z,93.81
2018-11-11T04:36:14.138Z,93.73
2018-11-11T04:38:41.619Z,93.74
2018-11-11T04:41:09.082Z,93.83
2018-11-11T04:43:36.531Z,93.82
2018-11-11T04:46:04.132Z,94.09
2018-11-11T04:48:31.632Z,93.67
2018-11-11T04:50:59.071Z,94.17
2018-11-11T04:53:26.546Z,93.95
2018-11-11T04:55:54.006Z,94.01
2018-11-11T04:58:21.693Z,94.07
2018-11-11T05:00:49.185Z,94.29
2018-11-11T05:03:16.612Z,94.17
2018-11-11T05:05:44.003Z,93.71
2018-11-11T05:08:11.569Z,94.18
2018-11-11T05:10:39.022Z,93.72
2018-11-11T05:13:06.462Z,93.81
2018-11-11T05:15:35.559Z,94.11
2018-11-11T05:18:02.948Z,93.70
2018-11-11T05:20:30.558Z,93.88
2018-11-11T05:22:58.079Z,93.47
2018-11-11T05:25:25.643Z,93.98
2018-11-11T05:27:53.182Z,93.76
2018-11-11T05:30:20.817Z,94.05
2018-11-11T05:32:48.248Z,93.69
2018-11-11T05:35:15.955Z,93.66
2018-11-11T05:37:43.420Z,93.99
2018-11-11T05:40:11.943Z,93.35
2018-11-11T05:42:40.016Z,93.49
2018-11-11T05:45:08.530Z,93.68
2018-11-11T05:47:36.113Z,93.35
2018-11-11T05:50:03.937Z,93.22
2018-11-11T05:52:31.387Z,92.96
2018-11-11T05:54:58.859Z,92.54
2018-11-11T05:57:26.387Z,92.47
2018-11-11T05:59:53.933Z,92.17
2018-11-11T06:02:21.397Z,92.11
2018-11-11T06:04:48.924Z,91.63
2018-11-11T06:07:16.473Z,91.71
2018-11-11T06:09:43.964Z,91.68
2018-11-11T06:12:11.388Z,91.71
2018-11-11T06:14:39.087Z,91.42
2018-11-11T06:17:06.574Z,91.09
2018-11-11T06:19:34.015Z,90.82
2018-11-11T06:22:01.565Z,90.89
2018-11-11T06:24:29.152Z,90.89
2018-11-11T06:26:56.672Z,91.15
2018-11-11T06:29:24.155Z,90.56
2018-11-11T06:31:51.695Z,90.08
2018-11-11T06:34:19.136Z,90.00
2018-11-11T06:36:46.619Z,89.86
2018-11-11T06:39:14.047Z,90.22
2018-11-11T06:41:41.502Z,89.78
2018-11-11T06:44:09.393Z,89.94
2018-11-11T06:46:36.901Z,90.16
2018-11-11T06:49:04.623Z,90.44
2018-11-11T06:51:32.248Z,90.19
2018-11-11T06:53:59.655Z,90.53
2018-11-11T06:56:27.323Z,90.96
2018-11-11T06:58:55.001Z,90.72
2018-11-11T07:01:22.544Z,90.79
2018-11-11T07:03:54.386Z,90.45
2018-11-11T07:06:22.286Z,90.56
2018-11-11T07:08:49.998Z,90.52
2018-11-11T07:11:18.385Z,90.22
2018-11-11T07:13:45.935Z,90.35
2018-11-11T07:16:13.966Z,90.41
2018-11-11T07:18:42.264Z,90.59
2018-11-11T07:21:09.984Z,90.38
2018-11-11T07:23:37.463Z,90.21
2018-11-11T07:26:05.290Z,90.64
2018-11-11T07:28:32.795Z,90.61
2018-11-11T07:31:00.462Z,90.71
2018-11-11T07:33:28.338Z,89.94
2018-11-11T07:35:55.850Z,90.14
2018-11-11T07:38:23.240Z,89.72
2018-11-11T07:40:50.839Z,89.56
2018-11-11T07:43:18.594Z,89.17
2018-11-11T07:45:46.426Z,88.57
2018-11-11T07:48:14.023Z,88.45
2018-11-11T07:50:41.551Z,87.85
2018-11-11T07:53:09.012Z,88.86
2018-11-11T07:55:36.533Z,88.19
2018-11-11T07:58:04.096Z,81.38
2018-11-11T08:00:31.605Z,74.55
2018-11-11T08:02:59.290Z,70.03
2018-11-11T08:05:26.742Z,69.12
2018-11-11T08:07:54.182Z,70.04
2018-11-11T08:10:33.042Z,69.87
2018-11-11T08:13:00.514Z,67.33
2018-11-11T08:15:27.925Z,67.80
2018-11-11T08:17:55.614Z,69.48
2018-11-11T08:20:23.310Z,70.82
2018-11-11T08:22:50.750Z,71.87
2018-11-11T08:25:18.371Z,71.76
2018-11-11T08:27:45.919Z,71.90
2018-11-11T08:30:13.560Z,72.38
2018-11-11T08:32:41.091Z,73.10
2018-11-11T08:35:09.279Z,74.08
2018-11-11T08:37:37.262Z,73.28
2018-11-11T08:40:05.574Z,71.62
2018-11-11T08:42:33.015Z,71.60
2018-11-11T08:45:00.594Z,73.12
2018-11-11T08:47:28.125Z,72.78
2018-11-11T08:49:55.664Z,70.90
2018-11-11T08:52:23.231Z,71.40
2018-11-11T08:54:50.766Z,72.38
2018-11-11T08:57:18.357Z,73.33
2018-11-11T08:59:45.877Z,74.73
2018-11-11T09:02:13.495Z,75.25
2018-11-11T09:04:41.110Z,75.09
2018-11-11T09:07:08.758Z,75.62
2018-11-11T09:09:36.259Z,76.12
2018-11-11T09:12:04.211Z,76.06
2018-11-11T09:14:31.746Z,75.98
2018-11-11T09:16:59.353Z,76.41
2018-11-11T09:19:26.797Z,75.21
2018-11-11T09:21:54.351Z,75.96
2018-11-11T09:24:21.829Z,76.37
2018-11-11T09:26:49.331Z,75.43
2018-11-11T09:29:16.894Z,75.24
2018-11-11T09:31:44.460Z,74.82
2018-11-11T09:34:11.879Z,75.50
2018-11-11T09:36:39.347Z,76.02
2018-11-11T09:39:09.381Z,75.14
2018-11-11T09:41:36.751Z,75.11
2018-11-11T09:44:04.917Z,74.75
2018-11-11T09:46:32.559Z,74.20
2018-11-11T09:49:00.044Z,74.14
2018-11-11T09:51:27.603Z,73.97
2018-11-11T09:53:55.146Z,73.51
2018-11-11T09:56:22.665Z,73.61
2018-11-11T09:58:50.156Z,73.49
2018-11-11T10:01:17.707Z,72.77
2018-11-11T10:04:04.134Z,73.00
2018-11-11T10:07:08.117Z,73.53
2018-11-11T10:09:44.807Z,73.03
2018-11-11T10:12:17.732Z,72.77
2018-11-11T10:14:51.007Z,73.08
2018-11-11T10:18:21.866Z,72.19
2018-11-11T10:20:54.952Z,72.36
2018-11-11T10:23:33.171Z,72.70
2018-11-11T10:26:07.414Z,71.51
2018-11-11T10:28:40.674Z,70.85
2018-11-11T10:31:12.504Z,70.25
2018-11-11T10:33:44.754Z,70.27
2018-11-11T10:36:19.823Z,68.81
2018-11-11T10:38:53.118Z,68.16
2018-11-11T10:41:26.188Z,68.31
2018-11-11T10:43:57.593Z,68.18
2018-11-11T10:46:28.589Z,67.75
2018-11-11T10:49:01.248Z,66.25
2018-11-11T10:51:28.937Z,65.60
2018-11-11T10:53:56.379Z,64.63
2018-11-11T10:56:23.902Z,64.78
2018-11-11T10:58:51.732Z,64.71
2018-11-11T11:01:25.027Z,64.33
2018-11-11T11:03:52.483Z,60.70
2018-11-11T11:06:25.839Z,59.61
2018-11-11T11:08:59.147Z,58.43
2018-11-11T11:11:26.801Z,59.77
2018-11-11T11:13:54.314Z,59.12
2018-11-11T11:16:21.810Z,60.45
2018-11-11T11:18:49.331Z,60.34
2018-11-11T11:21:16.899Z,60.40
2018-11-11T11:23:44.352Z,60.75
2018-11-11T11:26:11.945Z,61.13
2018-11-11T11:28:39.407Z,61.28
2018-11-11T11:31:06.865Z,62.25
2018-11-11T11:33:34.388Z,61.68
2018-11-11T11:36:01.861Z,61.40
2018-11-11T11:38:29.414Z,61.95
2018-11-11T11:40:56.933Z,60.83
2018-11-11T11:43:24.354Z,60.71
2018-11-11T11:45:51.887Z,60.83
2018-11-11T11:48:19.640Z,61.02
2018-11-11T11:50:47.181Z,61.21
2018-11-11T11:53:14.758Z,60.64
2018-11-11T11:55:42.401Z,59.86
2018-11-11T11:58:20.843Z,60.00
2018-11-11T12:00:48.847Z,59.58
2018-11-11T12:03:16.383Z,58.55
2018-11-11T12:05:44.539Z,57.88
2018-11-11T12:08:12.064Z,57.74
2018-11-11T12:10:39.589Z,58.22
2018-11-11T12:13:08.141Z,57.23
2018-11-11T12:15:35.817Z,57.83
2018-11-11T12:18:03.563Z,57.90
2018-11-11T12:20:31.281Z,57.48
2018-11-11T12:22:59.170Z,56.59
2018-11-11T12:25:26.619Z,56.19
2018-11-11T12:27:54.295Z,56.03
2018-11-11T12:30:22.551Z,55.75
2018-11-11T12:32:50.154Z,56.18
2018-11-11T12:35:17.690Z,57.47
2018-11-11T12:37:45.170Z,57.66
2018-11-11T12:40:12.963Z,57.60
2018-11-11T12:42:42.181Z,58.31
2018-11-11T12:45:16.607Z,57.44
2018-11-11T12:47:44.248Z,58.03
2018-11-11T12:50:12.823Z,56.89
2018-11-11T12:52:40.235Z,57.35
2018-11-11T12:55:08.115Z,59.08
2018-11-11T12:57:35.880Z,59.49
2018-11-11T13:00:04.305Z,59.04
2018-11-11T13:02:32.039Z,58.62
2018-11-11T13:04:59.538Z,58.28
2018-11-11T13:07:27.044Z,58.96
2018-11-11T13:09:54.529Z,59.88
2018-11-11T13:12:22.404Z,58.92
2018-11-11T13:14:49.867Z,58.49
2018-11-11T13:17:17.415Z,59.18
2018-11-11T13:19:45.036Z,59.73
2018-11-11T13:22:12.787Z,58.74
2018-11-11T13:24:40.382Z,59.31
2018-11-11T13:27:08.242Z,58.41
2018-11-11T13:29:35.763Z,58.48
2018-11-11T13:32:03.617Z,57.24
2018-11-11T13:34:31.090Z,58.12
2018-11-11T13:36:58.742Z,56.97
2018-11-11T13:39:26.358Z,56.45
2018-11-11T13:41:54.118Z,56.50
2018-11-11T13:44:21.909Z,56.27
2018-11-11T13:46:49.562Z,56.54
2018-11-11T13:49:16.930Z,57.00
2018-11-11T13:51:44.524Z,57.25
2018-11-11T13:54:11.956Z,56.92
2018-11-11T13:56:39.476Z,57.50
2018-11-11T13:59:07.194Z,58.37
2018-11-11T14:01:34.844Z,55.83
2018-11-11T14:04:02.460Z,56.28
2018-11-11T14:06:30.015Z,55.78
2018-11-11T14:08:57.692Z,53.30
2018-11-11T14:11:25.373Z,53.88
2018-11-11T14:13:53.498Z,54.67
2018-11-11T14:16:20.948Z,55.96
2018-11-11T14:18:48.574Z,55.91
2018-11-11T14:21:15.949Z,56.17
2018-11-11T14:23:43.406Z,56.93
2018-11-11T14:26:11.106Z,58.16
2018-11-11T14:28:38.659Z,57.53
2018-11-11T14:31:06.429Z,57.49
2018-11-11T14:33:33.968Z,57.59
2018-11-11T14:36:01.701Z,57.37
2018-11-11T14:38:29.282Z,59.40
2018-11-11T14:40:56.869Z,59.39
2018-11-11T14:43:24.396Z,59.74
2018-11-11T14:45:52.040Z,59.99
2018-11-11T14:48:19.498Z,60.77
2018-11-11T14:50:46.968Z,59.51
2018-11-11T14:53:14.413Z,59.46
2018-11-11T14:55:41.872Z,59.16
2018-11-11T14:58:09.401Z,59.96
2018-11-11T15:00:36.971Z,60.80
2018-11-11T15:03:08.820Z,58.94
2018-11-11T15:05:36.361Z,57.83
2018-11-11T15:08:04.119Z,58.45
2018-11-11T15:10:31.664Z,57.83
2018-11-11T15:12:59.405Z,58.29
2018-11-11T15:15:27.127Z,58.57
2018-11-11T15:17:55.535Z,59.12
2018-11-11T15:20:23.097Z,59.75
2018-11-11T15:22:50.460Z,60.98
2018-11-11T15:25:20.469Z,61.62
2018-11-11T15:27:48.083Z,61.87
2018-11-11T15:30:18.156Z,61.77
2018-11-11T15:32:46.182Z,62.18
2018-11-11T15:35:13.764Z,62.87
2018-11-11T15:37:41.340Z,62.58
2018-11-11T15:40:11.332Z,63.52
2018-11-11T15:42:39.252Z,64.21
2018-11-11T15:45:11.533Z,64.77
2018-11-11T15:47:39.513Z,65.71
2018-11-11T15:50:11.978Z,66.58
2018-11-11T15:52:40.114Z,66.30
2018-11-11T15:55:09.584Z,66.45
2018-11-11T15:57:37.388Z,66.98
2018-11-11T16:00:07.703Z,67.15
2018-11-11T16:02:35.215Z,67.82
2018-11-11T16:05:02.843Z,68.20
2018-11-11T16:07:30.338Z,68.28
2018-11-11T16:09:57.800Z,68.60
2018-11-11T16:12:25.426Z,69.19
2018-11-11T16:14:53.103Z,69.46
2018-11-11T16:17:20.628Z,69.99
2018-11-11T16:19:48.179Z,70.31
2018-11-11T16:22:15.698Z,70.67
2018-11-11T16:24:43.257Z,70.59
2018-11-11T16:27:10.878Z,71.18
2018-11-11T16:29:38.507Z,70.88
2018-11-11T16:32:06.108Z,71.65
2018-11-11T16:34:33.607Z,71.94
2018-11-11T16:37:01.050Z,72.21
2018-11-11T16:39:28.539Z,72.00
2018-11-11T16:41:56.057Z,72.19
2018-11-11T16:44:23.509Z,72.23
2018-11-11T16:46:51.000Z,72.36
2018-11-11T16:49:18.496Z,72.28
2018-11-11T16:51:46.076Z,72.19
2018-11-11T16:54:13.611Z,72.32
2018-11-11T16:56:41.163Z,72.29
2018-11-11T16:59:08.691Z,71.52
2018-11-11T17:01:36.252Z,70.47
2018-11-11T17:04:03.947Z,70.28
2018-11-11T17:06:31.421Z,70.38
2018-11-11T17:08:58.879Z,70.31
2018-11-11T17:11:26.437Z,69.92
2018-11-11T17:13:53.875Z,70.07
2018-11-11T17:16:21.338Z,68.66
2018-11-11T17:18:48.848Z,68.95
2018-11-11T17:21:16.319Z,68.99
2018-11-11T17:23:43.742Z,70.13
2018-11-11T17:26:11.262Z,70.06
2018-11-11T17:28:38.782Z,70.78
2018-11-11T17:31:06.267Z,71.77
2018-11-11T17:33:33.891Z,71.92
2018-11-11T17:36:01.406Z,72.36
2018-11-11T17:38:28.851Z,72.96
2018-11-11T17:40:56.362Z,73.56
2018-11-11T17:43:23.833Z,73.96
2018-11-11T17:45:51.340Z,74.20
2018-11-11T17:48:18.883Z,74.64
2018-11-11T17:50:46.318Z,74.68
2018-11-11T17:53:13.865Z,75.23
2018-11-11T17:55:41.523Z,75.62
2018-11-11T17:58:08.911Z,75.61
2018-11-11T18:00:36.578Z,75.80
2018-11-11T18:03:04.543Z,75.40
2018-11-11T18:05:32.310Z,74.41
2018-11-11T18:08:00.113Z,73.89
2018-11-11T18:10:27.914Z,74.16
2018-11-11T18:12:55.483Z,74.71
2018-11-11T18:15:25.445Z,75.17
2018-11-11T18:17:53.101Z,75.15
2018-11-11T18:20:22.069Z,75.64
2018-11-11T18:22:50.557Z,75.85
2018-11-11T18:25:18.062Z,75.77
2018-11-11T18:27:45.660Z,75.60
2018-11-11T18:30:18.975Z,75.31
2018-11-11T18:32:46.718Z,75.06
2018-11-11T18:35:15.712Z,73.72
2018-11-11T18:37:43.219Z,73.66
2018-11-11T18:40:12.460Z,73.40
2018-11-11T18:42:39.867Z,73.58
2018-11-11T18:45:10.180Z,73.29
2018-11-11T18:47:37.758Z,73.02
2018-11-11T18:50:08.636Z,73.25
2018-11-11T18:52:36.302Z,74.01
2018-11-11T18:55:04.620Z,74.37
2018-11-11T18:57:32.166Z,74.52
2018-11-11T18:59:59.742Z,74.42
2018-11-11T19:02:27.222Z,74.68
2018-11-11T19:04:54.730Z,74.35
2018-11-11T19:07:23.794Z,74.63
2018-11-11T19:09:51.346Z,75.26
2018-11-11T19:12:18.935Z,75.53
2018-11-11T19:14:46.391Z,75.97
2018-11-11T19:17:13.907Z,76.65
2018-11-11T19:19:41.419Z,76.66
2018-11-11T19:22:09.114Z,77.42
2018-11-11T19:24:36.831Z,77.06
2018-11-11T19:27:04.579Z,77.67
2018-11-11T19:29:32.072Z,77.56
2018-11-11T19:31:59.568Z,77.59
2018-11-11T19:34:27.061Z,77.69
2018-11-11T19:36:54.677Z,77.96
2018-11-11T19:39:22.107Z,78.25
2018-11-11T19:41:49.974Z,78.33
2018-11-11T19:44:17.445Z,78.22
2018-11-11T19:46:45.075Z,77.92
2018-11-11T19:49:12.771Z,78.36
2018-11-11T19:51:40.362Z,78.24
2018-11-11T19:54:07.833Z,78.19
2018-11-11T19:56:35.373Z,78.04
2018-11-11T19:59:02.903Z,77.54
2018-11-11T20:01:30.537Z,77.60
2018-11-11T20:03:58.104Z,77.32
2018-11-11T20:06:25.704Z,76.91
2018-11-11T20:08:53.160Z,76.63
2018-11-11T20:11:20.835Z,76.55
2018-11-11T20:13:48.299Z,75.92
2018-11-11T20:16:15.827Z,75.12
2018-11-11T20:18:43.423Z,74.20
2018-11-11T20:21:10.932Z,74.14
2018-11-11T20:23:38.427Z,74.63
2018-11-11T20:26:05.893Z,74.67
2018-11-11T20:28:33.421Z,75.00
2018-11-11T20:31:00.961Z,75.02
2018-11-11T20:33:28.434Z,75.04
2018-11-11T20:35:55.934Z,75.28
2018-11-11T20:38:23.411Z,75.28
2018-11-11T20:40:50.904Z,75.26
2018-11-11T20:43:18.478Z,74.90
2018-11-11T20:45:46.016Z,74.92
2018-11-11T20:48:13.573Z,74.91
2018-11-11T20:50:41.143Z,74.99
2018-11-11T20:53:08.572Z,75.18
2018-11-11T20:55:36.159Z,75.39
2018-11-11T20:58:04.293Z,75.90
2018-11-11T21:00:34.151Z,75.91
2018-11-11T21:03:01.636Z,75.83
2018-11-11T21:05:29.601Z,75.88
2018-11-11T21:07:57.168Z,75.95
2018-11-11T21:10:25.814Z,75.86
2018-11-11T21:12:53.712Z,75.72
2018-11-11T21:15:22.586Z,75.44
2018-11-11T21:17:50.325Z,75.49
2018-11-11T21:20:33.795Z,75.34
2018-11-11T21:23:01.370Z,75.37
2018-11-11T21:25:29.006Z,75.54
2018-11-11T21:27:56.499Z,75.69
2018-11-11T21:30:25.539Z,75.42
2018-11-11T21:32:53.200Z,75.66
2018-11-11T21:35:20.815Z,75.99
2018-11-11T21:37:48.421Z,75.98
2018-11-11T21:40:17.209Z,75.97
2018-11-11T21:42:45.744Z,75.79
2018-11-11T21:45:14.669Z,75.20
2018-11-11T21:47:42.583Z,74.97
2018-11-11T21:50:14.974Z,74.92
2018-11-11T21:52:44.119Z,74.85
2018-11-11T21:55:11.647Z,74.95
2018-11-11T21:57:39.226Z,74.79
2018-11-11T22:00:09.125Z,74.32
2018-11-11T22:02:36.619Z,74.49
2018-11-11T22:05:05.841Z,74.80
2018-11-11T22:07:33.383Z,75.04
2018-11-11T22:10:00.896Z,74.60
2018-11-11T22:12:28.429Z,74.66
2018-11-11T22:14:56.017Z,74.62
2018-11-11T22:17:23.558Z,74.34
2018-11-11T22:19:51.183Z,74.46
2018-11-11T22:22:18.695Z,74.40
2018-11-11T22:24:46.241Z,74.74
2018-11-11T22:27:13.763Z,74.60
2018-11-11T22:29:41.243Z,74.96
2018-11-11T22:32:08.745Z,75.27
2018-11-11T22:34:36.285Z,75.49
2018-11-11T22:37:03.797Z,75.41
2018-11-11T22:39:31.227Z,75.95
2018-11-11T22:41:58.776Z,76.09
2018-11-11T22:44:26.205Z,75.89
2018-11-11T22:46:53.784Z,76.69
2018-11-11T22:49:21.295Z,77.22
2018-11-11T22:51:49.105Z,77.87
2018-11-11T22:54:16.697Z,77.68
2018-11-11T22:56:44.216Z,77.71
2018-11-11T22:59:11.669Z,77.93
2018-11-11T23:01:39.104Z,78.56
2018-11-11T23:04:06.534Z,78.66
2018-11-11T23:06:34.005Z,78.95
2018-11-11T23:09:01.530Z,78.96
2018-11-11T23:11:29.199Z,79.53
2018-11-11T23:13:56.760Z,79.80
2018-11-11T23:16:24.275Z,79.96
2018-11-11T23:18:51.915Z,80.14
2018-11-11T23:21:19.485Z,80.12
2018-11-11T23:23:46.985Z,80.00
2018-11-11T23:26:14.530Z,80.03
2018-11-11T23:28:41.963Z,80.36
2018-11-11T23:31:09.519Z,80.70
2018-11-11T23:33:37.279Z,80.90
2018-11-11T23:36:05.169Z,80.77
2018-11-11T23:38:32.868Z,80.50
2018-11-11T23:41:00.412Z,81.22
2018-11-11T23:43:27.807Z,81.43
2018-11-11T23:45:55.288Z,81.55
2018-11-11T23:48:22.788Z,82.11
2018-11-11T23:50:50.321Z,82.50
2018-11-11T23:53:17.909Z,83.13
2018-11-11T23:55:45.387Z,83.44
2018-11-11T23:58:12.926Z,84.39
